Pagrindinis puslapis
METAR-TAF:

METAR-TAF

Oro uostai :

Sjenfuegosas, Kuba

platuma: 22-09N, ilguma: 080-24W, Aukštis: 39 m

Dabartinis oras

Ataskaita buvo paskelbta 43 minutes, ne 23:59 UTC
Vėjas 5 kt iš Šiaurės/Šiaurės Rytų, svyruoja nuo Šiaurės/Šiaurės Vakarų ir Rytų/Šiaurės Rytų
Temperatūra 29°C
Drėgmė 74%
Slėgis 1018 hPa

METAR: MUCF 012359Z AUTO 02005KT 330V060 29/24 Q1018

Laikas: 20:42 (00:42 UTC)

Prognozė

Ataskaita buvo paskelbta 7 valandos ir 42 minutes, ne 17:00 UTC
Prognozė galioja nuo 01 metu 18 UTC su 02 metu 06 UTC
Vėjas 10 kt iš Pietų
Matomumas: 9000 m
Išsisklaidę debesys ne aukštis 2000 ft
Laikinai
nuo 01 metu 18 UTC su 01 metu 24 UTC
Vėjas 10 kt nuo kintamojo kryptimis
Matomumas: 3000 m
Išsisklaidę debesys ne aukštis 1800 ft, Liūtiniai kamuoliniai debesys.
Su prošvaistėmis ne aukštis 2000 ft
perkūnija, lietus
Tapsmas
nuo 02 metu 01 UTC su 02 metu 03 UTC
Vėjas 3 kt nuo kintamojo kryptimis

TAF: MUCF 011700Z 0118/0206 19010KT 9000 SCT020 TEMPO 0118/0124 VRB10KT 3000 TSRA SCT018CB BKN020 BECMG 0201/0203 VRB03KT

Orai ataskaitas ir orų prognozės (METAR, TAF).

turimą stotys yra geltonos ir raudonos taškus žemėlapyje.

Perkelti pele per norėdami pamatyti stoties vardą.

Tada spustelėkite, norėdami matyti oro stebėjimo ir prognozės.

Norėdami pakeisti žemėlapį: spustelėkite ant žalios mygtukų su juodo kryžiaus žemyn,; žalią mygtuką su brūkšneliu, jei norite nutolinti; arba žalių rodyklių gretimoms žemėlapius.


METAR-TAF: